sensor_id;sensor_type;location;lat;lon;timestamp;temperature;humidity
33207;DHT22;19565;46.602;11.534;2022-09-09T00:00:25;18.00;99.90
33207;DHT22;19565;46.602;11.534;2022-09-09T00:03:01;17.90;99.90
33207;DHT22;19565;46.602;11.534;2022-09-09T00:05:36;17.90;99.90
33207;DHT22;19565;46.602;11.534;2022-09-09T00:08:16;17.90;99.90
33207;DHT22;19565;46.602;11.534;2022-09-09T00:10:51;17.90;99.90
33207;DHT22;19565;46.602;11.534;2022-09-09T00:13:25;17.90;99.90
33207;DHT22;19565;46.602;11.534;2022-09-09T00:15:59;18.00;99.90
33207;DHT22;19565;46.602;11.534;2022-09-09T00:18:35;18.20;99.90
33207;DHT22;19565;46.602;11.534;2022-09-09T00:21:07;18.20;99.90
33207;DHT22;19565;46.602;11.534;2022-09-09T00:23:38;18.10;99.90
33207;DHT22;19565;46.602;11.534;2022-09-09T00:26:11;18.00;99.90
33207;DHT22;19565;46.602;11.534;2022-09-09T00:28:48;17.90;99.90
33207;DHT22;19565;46.602;11.534;2022-09-09T00:31:22;17.80;99.90
33207;DHT22;19565;46.602;11.534;2022-09-09T00:33:52;17.90;99.90
33207;DHT22;19565;46.602;11.534;2022-09-09T00:36:23;18.00;99.90
33207;DHT22;19565;46.602;11.534;2022-09-09T00:38:56;18.10;99.90
33207;DHT22;19565;46.602;11.534;2022-09-09T00:41:33;18.00;99.90
33207;DHT22;19565;46.602;11.534;2022-09-09T00:44:19;18.20;99.90
33207;DHT22;19565;46.602;11.534;2022-09-09T00:47:02;18.30;99.90
33207;DHT22;19565;46.602;11.534;2022-09-09T00:49:42;18.30;99.90
33207;DHT22;19565;46.602;11.534;2022-09-09T00:52:25;18.20;99.90
33207;DHT22;19565;46.602;11.534;2022-09-09T00:55:03;18.10;99.90
33207;DHT22;19565;46.602;11.534;2022-09-09T00:57:34;18.00;99.90
33207;DHT22;19565;46.602;11.534;2022-09-09T01:00:22;17.90;99.90
33207;DHT22;19565;46.602;11.534;2022-09-09T01:03:18;18.00;99.90
33207;DHT22;19565;46.602;11.534;2022-09-09T01:05:54;17.90;99.90
33207;DHT22;19565;46.602;11.534;2022-09-09T01:08:54;17.90;99.90
33207;DHT22;19565;46.602;11.534;2022-09-09T01:11:33;17.90;99.90
33207;DHT22;19565;46.602;11.534;2022-09-09T01:14:13;18.00;99.90
33207;DHT22;19565;46.602;11.534;2022-09-09T01:16:44;18.20;99.90
33207;DHT22;19565;46.602;11.534;2022-09-09T01:19:19;18.30;99.90
33207;DHT22;19565;46.602;11.534;2022-09-09T01:21:59;18.40;99.90
33207;DHT22;19565;46.602;11.534;2022-09-09T01:24:36;18.30;99.90
33207;DHT22;19565;46.602;11.534;2022-09-09T01:27:09;18.00;99.90
33207;DHT22;19565;46.602;11.534;2022-09-09T01:29:38;17.70;99.90
33207;DHT22;19565;46.602;11.534;2022-09-09T01:32:41;17.60;99.90
33207;DHT22;19565;46.602;11.534;2022-09-09T01:35:13;17.50;99.90
33207;DHT22;19565;46.602;11.534;2022-09-09T01:37:43;17.60;99.90
33207;DHT22;19565;46.602;11.534;2022-09-09T01:40:11;17.60;99.90
33207;DHT22;19565;46.602;11.534;2022-09-09T01:42:41;17.60;99.90
33207;DHT22;19565;46.602;11.534;2022-09-09T01:45:09;17.70;99.90
33207;DHT22;19565;46.602;11.534;2022-09-09T01:47:37;17.60;99.90
33207;DHT22;19565;46.602;11.534;2022-09-09T01:50:07;17.50;99.90
33207;DHT22;19565;46.602;11.534;2022-09-09T01:52:37;17.60;99.90
33207;DHT22;19565;46.602;11.534;2022-09-09T01:55:06;17.60;99.90
33207;DHT22;19565;46.602;11.534;2022-09-09T01:57:39;17.60;99.90
33207;DHT22;19565;46.602;11.534;2022-09-09T02:00:14;17.60;99.90
33207;DHT22;19565;46.602;11.534;2022-09-09T02:02:52;17.60;99.90
33207;DHT22;19565;46.602;11.534;2022-09-09T02:05:30;17.50;99.90
33207;DHT22;19565;46.602;11.534;2022-09-09T02:08:06;17.40;99.90
33207;DHT22;19565;46.602;11.534;2022-09-09T02:10:40;17.40;99.90
33207;DHT22;19565;46.602;11.534;2022-09-09T02:13:12;17.30;99.90
33207;DHT22;19565;46.602;11.534;2022-09-09T02:15:45;17.30;99.90
33207;DHT22;19565;46.602;11.534;2022-09-09T02:18:19;17.20;99.90
33207;DHT22;19565;46.602;11.534;2022-09-09T02:20:49;17.20;99.90
33207;DHT22;19565;46.602;11.534;2022-09-09T02:23:19;17.30;99.90
33207;DHT22;19565;46.602;11.534;2022-09-09T02:25:48;17.30;99.90
33207;DHT22;19565;46.602;11.534;2022-09-09T02:28:20;17.50;99.90
33207;DHT22;19565;46.602;11.534;2022-09-09T02:30:52;17.50;99.90
33207;DHT22;19565;46.602;11.534;2022-09-09T02:33:24;17.60;99.90
33207;DHT22;19565;46.602;11.534;2022-09-09T02:35:54;17.80;99.90
33207;DHT22;19565;46.602;11.534;2022-09-09T02:38:30;17.90;99.90
33207;DHT22;19565;46.602;11.534;2022-09-09T02:41:02;17.90;99.90
33207;DHT22;19565;46.602;11.534;2022-09-09T02:43:31;18.10;99.90
33207;DHT22;19565;46.602;11.534;2022-09-09T02:48:53;18.00;99.90
33207;DHT22;19565;46.602;11.534;2022-09-09T02:51:28;17.80;99.90
33207;DHT22;19565;46.602;11.534;2022-09-09T02:54:06;17.90;99.90
33207;DHT22;19565;46.602;11.534;2022-09-09T02:56:40;17.90;99.90
33207;DHT22;19565;46.602;11.534;2022-09-09T02:59:09;17.70;99.90
33207;DHT22;19565;46.602;11.534;2022-09-09T03:01:39;17.60;99.90
33207;DHT22;19565;46.602;11.534;2022-09-09T03:04:07;17.60;99.90
33207;DHT22;19565;46.602;11.534;2022-09-09T03:06:35;17.60;99.90
33207;DHT22;19565;46.602;11.534;2022-09-09T03:09:04;17.60;99.90
33207;DHT22;19565;46.602;11.534;2022-09-09T03:11:32;17.60;99.90
33207;DHT22;19565;46.602;11.534;2022-09-09T03:14:00;17.50;99.90
33207;DHT22;19565;46.602;11.534;2022-09-09T03:16:29;17.50;99.90
33207;DHT22;19565;46.602;11.534;2022-09-09T03:18:58;17.50;99.90
33207;DHT22;19565;46.602;11.534;2022-09-09T03:21:26;17.60;99.90
33207;DHT22;19565;46.602;11.534;2022-09-09T03:23:54;17.70;99.90
33207;DHT22;19565;46.602;11.534;2022-09-09T03:26:23;17.80;99.90
33207;DHT22;19565;46.602;11.534;2022-09-09T03:28:51;17.90;99.90
33207;DHT22;19565;46.602;11.534;2022-09-09T03:31:19;18.00;99.90
33207;DHT22;19565;46.602;11.534;2022-09-09T03:33:48;18.00;99.90
33207;DHT22;19565;46.602;11.534;2022-09-09T03:36:17;18.10;99.90
33207;DHT22;19565;46.602;11.534;2022-09-09T03:38:45;18.10;99.90
33207;DHT22;19565;46.602;11.534;2022-09-09T03:41:13;18.10;99.90
33207;DHT22;19565;46.602;11.534;2022-09-09T03:43:41;18.10;99.90
33207;DHT22;19565;46.602;11.534;2022-09-09T03:46:09;18.00;99.90
33207;DHT22;19565;46.602;11.534;2022-09-09T03:48:38;18.00;99.90
33207;DHT22;19565;46.602;11.534;2022-09-09T03:51:06;18.10;99.90
33207;DHT22;19565;46.602;11.534;2022-09-09T03:53:36;18.00;99.90
33207;DHT22;19565;46.602;11.534;2022-09-09T03:56:06;18.10;99.90
33207;DHT22;19565;46.602;11.534;2022-09-09T03:58:34;18.00;99.90
33207;DHT22;19565;46.602;11.534;2022-09-09T04:01:05;18.00;99.90
33207;DHT22;19565;46.602;11.534;2022-09-09T04:03:35;17.90;99.90
33207;DHT22;19565;46.602;11.534;2022-09-09T04:06:04;17.90;99.90
33207;DHT22;19565;46.602;11.534;2022-09-09T04:08:34;17.70;99.90
33207;DHT22;19565;46.602;11.534;2022-09-09T04:11:04;17.70;99.90
33207;DHT22;19565;46.602;11.534;2022-09-09T04:13:34;17.70;99.90
33207;DHT22;19565;46.602;11.534;2022-09-09T04:16:04;17.80;99.90
33207;DHT22;19565;46.602;11.534;2022-09-09T04:18:33;17.80;99.90
33207;DHT22;19565;46.602;11.534;2022-09-09T04:21:02;17.80;99.90
33207;DHT22;19565;46.602;11.534;2022-09-09T04:23:31;17.90;99.90
33207;DHT22;19565;46.602;11.534;2022-09-09T04:26:01;17.70;99.90
33207;DHT22;19565;46.602;11.534;2022-09-09T04:28:32;17.50;99.90
33207;DHT22;19565;46.602;11.534;2022-09-09T04:31:05;17.40;99.90
33207;DHT22;19565;46.602;11.534;2022-09-09T04:33:33;17.20;99.90
33207;DHT22;19565;46.602;11.534;2022-09-09T04:36:06;17.10;99.90
33207;DHT22;19565;46.602;11.534;2022-09-09T04:38:34;17.00;99.90
33207;DHT22;19565;46.602;11.534;2022-09-09T04:41:03;17.10;99.90
33207;DHT22;19565;46.602;11.534;2022-09-09T04:43:32;17.30;99.90
33207;DHT22;19565;46.602;11.534;2022-09-09T04:46:01;17.20;99.90
33207;DHT22;19565;46.602;11.534;2022-09-09T04:48:29;17.30;99.90
33207;DHT22;19565;46.602;11.534;2022-09-09T04:50:59;17.40;99.90
33207;DHT22;19565;46.602;11.534;2022-09-09T04:53:28;17.40;99.90
33207;DHT22;19565;46.602;11.534;2022-09-09T04:56:01;17.50;99.90
33207;DHT22;19565;46.602;11.534;2022-09-09T04:58:32;17.60;99.90
33207;DHT22;19565;46.602;11.534;2022-09-09T05:01:05;17.70;99.90
33207;DHT22;19565;46.602;11.534;2022-09-09T05:03:33;17.60;99.90
33207;DHT22;19565;46.602;11.534;2022-09-09T05:06:03;17.70;99.90
33207;DHT22;19565;46.602;11.534;2022-09-09T05:08:32;17.70;99.90
33207;DHT22;19565;46.602;11.534;2022-09-09T05:11:00;17.80;99.90
33207;DHT22;19565;46.602;11.534;2022-09-09T05:13:31;17.80;99.90
33207;DHT22;19565;46.602;11.534;2022-09-09T05:16:05;17.70;99.90
33207;DHT22;19565;46.602;11.534;2022-09-09T05:18:33;17.60;99.90
33207;DHT22;19565;46.602;11.534;2022-09-09T05:21:02;17.70;99.90
33207;DHT22;19565;46.602;11.534;2022-09-09T05:23:30;17.80;99.90
33207;DHT22;19565;46.602;11.534;2022-09-09T05:25:58;17.80;99.90
33207;DHT22;19565;46.602;11.534;2022-09-09T05:28:27;17.70;99.90
33207;DHT22;19565;46.602;11.534;2022-09-09T05:31:01;17.70;99.90
33207;DHT22;19565;46.602;11.534;2022-09-09T05:33:31;17.80;99.90
33207;DHT22;19565;46.602;11.534;2022-09-09T05:36:01;17.80;99.90
33207;DHT22;19565;46.602;11.534;2022-09-09T05:38:30;17.80;99.90
33207;DHT22;19565;46.602;11.534;2022-09-09T05:40:59;17.60;99.90
33207;DHT22;19565;46.602;11.534;2022-09-09T05:43:28;17.70;99.90
33207;DHT22;19565;46.602;11.534;2022-09-09T05:46:02;17.70;99.90
33207;DHT22;19565;46.602;11.534;2022-09-09T05:48:32;17.80;99.90
33207;DHT22;19565;46.602;11.534;2022-09-09T05:51:01;17.90;99.90
33207;DHT22;19565;46.602;11.534;2022-09-09T05:53:30;18.00;99.90
33207;DHT22;19565;46.602;11.534;2022-09-09T05:56:01;18.00;99.90
33207;DHT22;19565;46.602;11.534;2022-09-09T05:58:31;17.80;99.90
33207;DHT22;19565;46.602;11.534;2022-09-09T06:01:05;17.80;99.90
33207;DHT22;19565;46.602;11.534;2022-09-09T06:03:35;17.80;99.90
33207;DHT22;19565;46.602;11.534;2022-09-09T06:06:05;17.90;99.90
33207;DHT22;19565;46.602;11.534;2022-09-09T06:08:34;17.90;99.90
33207;DHT22;19565;46.602;11.534;2022-09-09T06:11:05;17.90;99.90
33207;DHT22;19565;46.602;11.534;2022-09-09T06:13:33;17.90;99.90
33207;DHT22;19565;46.602;11.534;2022-09-09T06:16:05;17.80;99.90
33207;DHT22;19565;46.602;11.534;2022-09-09T06:18:34;17.80;99.90
33207;DHT22;19565;46.602;11.534;2022-09-09T06:21:04;17.70;99.90
33207;DHT22;19565;46.602;11.534;2022-09-09T06:23:34;17.80;99.90
33207;DHT22;19565;46.602;11.534;2022-09-09T06:26:04;17.80;99.90
33207;DHT22;19565;46.602;11.534;2022-09-09T06:28:33;18.00;99.90
33207;DHT22;19565;46.602;11.534;2022-09-09T06:31:05;18.00;99.90
33207;DHT22;19565;46.602;11.534;2022-09-09T06:33:35;18.00;99.90
33207;DHT22;19565;46.602;11.534;2022-09-09T06:36:06;18.10;99.90
33207;DHT22;19565;46.602;11.534;2022-09-09T06:38:35;18.10;99.90
33207;DHT22;19565;46.602;11.534;2022-09-09T06:41:03;18.00;99.90
33207;DHT22;19565;46.602;11.534;2022-09-09T06:43:32;17.80;99.90
33207;DHT22;19565;46.602;11.534;2022-09-09T06:46:05;17.90;99.90
33207;DHT22;19565;46.602;11.534;2022-09-09T06:48:36;17.80;99.90
33207;DHT22;19565;46.602;11.534;2022-09-09T06:51:09;17.80;99.90
33207;DHT22;19565;46.602;11.534;2022-09-09T06:53:40;17.80;99.90
33207;DHT22;19565;46.602;11.534;2022-09-09T06:56:19;17.90;99.90
33207;DHT22;19565;46.602;11.534;2022-09-09T06:58:49;17.90;99.90
33207;DHT22;19565;46.602;11.534;2022-09-09T07:01:19;17.90;99.90
33207;DHT22;19565;46.602;11.534;2022-09-09T07:03:50;18.00;99.90
33207;DHT22;19565;46.602;11.534;2022-09-09T07:06:20;18.10;99.90
33207;DHT22;19565;46.602;11.534;2022-09-09T07:08:51;18.10;99.90
33207;DHT22;19565;46.602;11.534;2022-09-09T07:11:24;18.20;99.90
33207;DHT22;19565;46.602;11.534;2022-09-09T07:13:53;18.10;99.90
33207;DHT22;19565;46.602;11.534;2022-09-09T07:16:22;18.10;99.90
33207;DHT22;19565;46.602;11.534;2022-09-09T07:18:53;18.20;99.90
33207;DHT22;19565;46.602;11.534;2022-09-09T07:21:25;18.20;99.90
33207;DHT22;19565;46.602;11.534;2022-09-09T07:23:54;18.20;99.90
33207;DHT22;19565;46.602;11.534;2022-09-09T07:26:25;18.30;99.90
33207;DHT22;19565;46.602;11.534;2022-09-09T07:28:53;18.40;99.90
33207;DHT22;19565;46.602;11.534;2022-09-09T07:31:24;18.40;99.90
33207;DHT22;19565;46.602;11.534;2022-09-09T07:33:54;18.50;99.90
33207;DHT22;19565;46.602;11.534;2022-09-09T07:36:24;18.40;99.90
33207;DHT22;19565;46.602;11.534;2022-09-09T07:39:00;18.50;99.90
33207;DHT22;19565;46.602;11.534;2022-09-09T07:41:31;18.50;99.90
33207;DHT22;19565;46.602;11.534;2022-09-09T07:44:04;18.50;99.90
33207;DHT22;19565;46.602;11.534;2022-09-09T07:46:33;18.60;99.90
33207;DHT22;19565;46.602;11.534;2022-09-09T07:49:03;18.50;99.90
33207;DHT22;19565;46.602;11.534;2022-09-09T07:51:33;18.50;99.90
33207;DHT22;19565;46.602;11.534;2022-09-09T07:54:04;18.50;99.90
33207;DHT22;19565;46.602;11.534;2022-09-09T07:56:33;18.60;99.90
33207;DHT22;19565;46.602;11.534;2022-09-09T07:59:02;18.60;99.90
33207;DHT22;19565;46.602;11.534;2022-09-09T08:01:32;18.70;99.90
33207;DHT22;19565;46.602;11.534;2022-09-09T08:04:05;18.70;99.90
33207;DHT22;19565;46.602;11.534;2022-09-09T08:06:36;18.80;99.90
33207;DHT22;19565;46.602;11.534;2022-09-09T08:09:05;18.80;99.90
33207;DHT22;19565;46.602;11.534;2022-09-09T08:11:34;18.90;99.90
33207;DHT22;19565;46.602;11.534;2022-09-09T08:14:05;19.00;99.90
33207;DHT22;19565;46.602;11.534;2022-09-09T08:16:36;19.10;99.90
33207;DHT22;19565;46.602;11.534;2022-09-09T08:19:06;19.20;99.90
33207;DHT22;19565;46.602;11.534;2022-09-09T08:21:36;19.20;99.90
33207;DHT22;19565;46.602;11.534;2022-09-09T08:24:06;19.20;99.90
33207;DHT22;19565;46.602;11.534;2022-09-09T08:26:36;19.20;99.90
33207;DHT22;19565;46.602;11.534;2022-09-09T08:29:06;19.20;99.90
33207;DHT22;19565;46.602;11.534;2022-09-09T08:31:36;19.20;99.90
33207;DHT22;19565;46.602;11.534;2022-09-09T08:34:06;19.20;99.90
33207;DHT22;19565;46.602;11.534;2022-09-09T08:36:37;19.10;99.90
33207;DHT22;19565;46.602;11.534;2022-09-09T08:39:06;19.00;99.90
33207;DHT22;19565;46.602;11.534;2022-09-09T08:41:42;19.00;99.90
33207;DHT22;19565;46.602;11.534;2022-09-09T08:44:21;19.00;99.90
33207;DHT22;19565;46.602;11.534;2022-09-09T08:46:58;19.00;99.90
33207;DHT22;19565;46.602;11.534;2022-09-09T08:50:00;19.10;99.90
33207;DHT22;19565;46.602;11.534;2022-09-09T08:52:37;19.10;99.90
33207;DHT22;19565;46.602;11.534;2022-09-09T08:55:16;19.20;99.90
33207;DHT22;19565;46.602;11.534;2022-09-09T08:57:50;19.20;99.90
33207;DHT22;19565;46.602;11.534;2022-09-09T09:00:19;19.20;99.90
33207;DHT22;19565;46.602;11.534;2022-09-09T09:02:56;19.10;99.90
33207;DHT22;19565;46.602;11.534;2022-09-09T09:05:35;19.00;99.90
33207;DHT22;19565;46.602;11.534;2022-09-09T09:08:12;18.80;99.90
33207;DHT22;19565;46.602;11.534;2022-09-09T09:10:48;18.80;99.90
33207;DHT22;19565;46.602;11.534;2022-09-09T09:13:19;18.80;99.90
33207;DHT22;19565;46.602;11.534;2022-09-09T09:15:52;18.70;99.90
33207;DHT22;19565;46.602;11.534;2022-09-09T09:18:21;18.60;99.90
33207;DHT22;19565;46.602;11.534;2022-09-09T09:21:00;18.60;99.90
33207;DHT22;19565;46.602;11.534;2022-09-09T09:23:38;18.50;99.90
33207;DHT22;19565;46.602;11.534;2022-09-09T09:26:10;18.40;99.90
33207;DHT22;19565;46.602;11.534;2022-09-09T09:28:39;18.40;99.90
33207;DHT22;19565;46.602;11.534;2022-09-09T09:31:10;18.50;99.90
33207;DHT22;19565;46.602;11.534;2022-09-09T09:33:45;18.50;99.90
33207;DHT22;19565;46.602;11.534;2022-09-09T09:36:16;18.50;99.90
33207;DHT22;19565;46.602;11.534;2022-09-09T09:39:02;18.50;99.90
33207;DHT22;19565;46.602;11.534;2022-09-09T09:41:52;18.50;99.90
33207;DHT22;19565;46.602;11.534;2022-09-09T09:44:24;18.60;99.90
33207;DHT22;19565;46.602;11.534;2022-09-09T09:46:52;18.60;99.90
33207;DHT22;19565;46.602;11.534;2022-09-09T09:49:21;18.70;99.90
33207;DHT22;19565;46.602;11.534;2022-09-09T09:51:51;18.70;99.90
33207;DHT22;19565;46.602;11.534;2022-09-09T09:54:25;18.70;99.90
33207;DHT22;19565;46.602;11.534;2022-09-09T09:56:55;18.70;99.90
33207;DHT22;19565;46.602;11.534;2022-09-09T09:59:33;18.70;99.90
33207;DHT22;19565;46.602;11.534;2022-09-09T10:02:17;18.70;99.90
33207;DHT22;19565;46.602;11.534;2022-09-09T10:04:46;18.70;99.90
33207;DHT22;19565;46.602;11.534;2022-09-09T10:07:20;18.80;99.90
33207;DHT22;19565;46.602;11.534;2022-09-09T10:09:53;18.80;99.90
33207;DHT22;19565;46.602;11.534;2022-09-09T10:12:30;18.80;99.90
33207;DHT22;19565;46.602;11.534;2022-09-09T10:15:06;18.80;99.90
33207;DHT22;19565;46.602;11.534;2022-09-09T10:17:47;18.80;99.90
33207;DHT22;19565;46.602;11.534;2022-09-09T10:20:32;18.80;99.90
33207;DHT22;19565;46.602;11.534;2022-09-09T10:23:11;18.80;99.90
33207;DHT22;19565;46.602;11.534;2022-09-09T10:25:56;18.80;99.90
33207;DHT22;19565;46.602;11.534;2022-09-09T10:31:27;19.00;99.90
33207;DHT22;19565;46.602;11.534;2022-09-09T10:34:09;19.10;99.90
33207;DHT22;19565;46.602;11.534;2022-09-09T10:36:46;19.10;99.90
33207;DHT22;19565;46.602;11.534;2022-09-09T10:39:32;19.20;99.90
33207;DHT22;19565;46.602;11.534;2022-09-09T10:42:10;19.10;99.90
33207;DHT22;19565;46.602;11.534;2022-09-09T10:44:55;19.20;99.90
33207;DHT22;19565;46.602;11.534;2022-09-09T10:47:43;19.10;99.90
33207;DHT22;19565;46.602;11.534;2022-09-09T10:50:26;19.10;99.90
33207;DHT22;19565;46.602;11.534;2022-09-09T10:53:23;19.10;99.90
33207;DHT22;19565;46.602;11.534;2022-09-09T10:55:58;19.00;99.90
33207;DHT22;19565;46.602;11.534;2022-09-09T10:58:35;19.00;99.90
33207;DHT22;19565;46.602;11.534;2022-09-09T11:01:12;18.90;99.90
33207;DHT22;19565;46.602;11.534;2022-09-09T11:03:43;18.80;99.90
33207;DHT22;19565;46.602;11.534;2022-09-09T11:06:15;18.70;99.90
33207;DHT22;19565;46.602;11.534;2022-09-09T11:08:45;18.70;99.90
33207;DHT22;19565;46.602;11.534;2022-09-09T11:11:25;18.70;99.90
33207;DHT22;19565;46.602;11.534;2022-09-09T11:13:58;18.60;99.90
33207;DHT22;19565;46.602;11.534;2022-09-09T11:16:30;18.60;99.90
33207;DHT22;19565;46.602;11.534;2022-09-09T11:19:02;18.60;99.90
33207;DHT22;19565;46.602;11.534;2022-09-09T11:21:35;18.50;99.90
33207;DHT22;19565;46.602;11.534;2022-09-09T11:24:11;18.40;99.90
33207;DHT22;19565;46.602;11.534;2022-09-09T11:26:46;18.50;99.90
33207;DHT22;19565;46.602;11.534;2022-09-09T11:29:43;18.60;99.90
33207;DHT22;19565;46.602;11.534;2022-09-09T11:32:27;18.70;99.90
33207;DHT22;19565;46.602;11.534;2022-09-09T11:35:03;18.60;99.90
33207;DHT22;19565;46.602;11.534;2022-09-09T11:37:49;18.50;99.90
33207;DHT22;19565;46.602;11.534;2022-09-09T11:40:23;18.50;99.90
33207;DHT22;19565;46.602;11.534;2022-09-09T11:43:04;18.60;99.90
33207;DHT22;19565;46.602;11.534;2022-09-09T11:45:34;18.50;99.90
33207;DHT22;19565;46.602;11.534;2022-09-09T11:48:04;18.40;99.90
33207;DHT22;19565;46.602;11.534;2022-09-09T11:50:36;18.30;99.90
33207;DHT22;19565;46.602;11.534;2022-09-09T11:53:19;18.30;99.90
33207;DHT22;19565;46.602;11.534;2022-09-09T11:56:10;18.30;99.90
33207;DHT22;19565;46.602;11.534;2022-09-09T11:58:44;18.30;99.90
33207;DHT22;19565;46.602;11.534;2022-09-09T12:01:28;18.20;99.90
33207;DHT22;19565;46.602;11.534;2022-09-09T12:04:25;18.40;99.90
33207;DHT22;19565;46.602;11.534;2022-09-09T12:06:58;18.60;99.90
33207;DHT22;19565;46.602;11.534;2022-09-09T12:09:32;18.60;99.90
33207;DHT22;19565;46.602;11.534;2022-09-09T12:12:21;18.70;99.90
33207;DHT22;19565;46.602;11.534;2022-09-09T12:17:50;18.70;99.90
33207;DHT22;19565;46.602;11.534;2022-09-09T12:20:20;18.80;99.90
33207;DHT22;19565;46.602;11.534;2022-09-09T12:25:53;19.00;99.90
33207;DHT22;19565;46.602;11.534;2022-09-09T12:28:32;19.00;99.90
33207;DHT22;19565;46.602;11.534;2022-09-09T12:31:10;19.10;99.90
33207;DHT22;19565;46.602;11.534;2022-09-09T12:33:45;19.20;99.90
33207;DHT22;19565;46.602;11.534;2022-09-09T12:36:16;19.30;99.90
33207;DHT22;19565;46.602;11.534;2022-09-09T12:38:46;19.40;99.90
33207;DHT22;19565;46.602;11.534;2022-09-09T12:41:21;19.50;99.90
33207;DHT22;19565;46.602;11.534;2022-09-09T12:43:51;19.70;99.90
33207;DHT22;19565;46.602;11.534;2022-09-09T12:46:27;19.70;98.40
33207;DHT22;19565;46.602;11.534;2022-09-09T12:48:59;19.70;98.20
33207;DHT22;19565;46.602;11.534;2022-09-09T12:51:30;19.70;96.50
33207;DHT22;19565;46.602;11.534;2022-09-09T12:53:59;19.70;95.60
33207;DHT22;19565;46.602;11.534;2022-09-09T12:56:30;19.80;95.90
33207;DHT22;19565;46.602;11.534;2022-09-09T12:58:59;19.70;95.90
33207;DHT22;19565;46.602;11.534;2022-09-09T13:01:31;19.70;96.30
33207;DHT22;19565;46.602;11.534;2022-09-09T13:04:00;19.80;96.40
33207;DHT22;19565;46.602;11.534;2022-09-09T13:06:29;19.60;96.40
33207;DHT22;19565;46.602;11.534;2022-09-09T13:09:00;19.70;96.00
33207;DHT22;19565;46.602;11.534;2022-09-09T13:11:31;19.80;96.70
33207;DHT22;19565;46.602;11.534;2022-09-09T13:13:59;19.90;95.90
33207;DHT22;19565;46.602;11.534;2022-09-09T13:16:31;19.80;95.30
33207;DHT22;19565;46.602;11.534;2022-09-09T13:19:08;20.00;95.20
33207;DHT22;19565;46.602;11.534;2022-09-09T13:21:38;20.10;95.50
33207;DHT22;19565;46.602;11.534;2022-09-09T13:24:24;20.10;94.30
33207;DHT22;19565;46.602;11.534;2022-09-09T13:26:55;20.10;94.40
33207;DHT22;19565;46.602;11.534;2022-09-09T13:29:24;20.20;95.00
33207;DHT22;19565;46.602;11.534;2022-09-09T13:31:54;20.20;94.90
33207;DHT22;19565;46.602;11.534;2022-09-09T13:34:27;20.20;93.60
33207;DHT22;19565;46.602;11.534;2022-09-09T13:36:58;20.20;92.90
33207;DHT22;19565;46.602;11.534;2022-09-09T13:39:28;20.30;93.40
33207;DHT22;19565;46.602;11.534;2022-09-09T13:41:56;20.30;92.70
33207;DHT22;19565;46.602;11.534;2022-09-09T13:44:26;20.40;92.60
33207;DHT22;19565;46.602;11.534;2022-09-09T13:47:03;20.40;92.90
33207;DHT22;19565;46.602;11.534;2022-09-09T13:49:36;20.50;93.40
33207;DHT22;19565;46.602;11.534;2022-09-09T13:52:08;20.50;93.90
33207;DHT22;19565;46.602;11.534;2022-09-09T13:54:37;20.50;93.80
33207;DHT22;19565;46.602;11.534;2022-09-09T13:57:05;20.40;94.00
33207;DHT22;19565;46.602;11.534;2022-09-09T13:59:33;20.50;94.10
33207;DHT22;19565;46.602;11.534;2022-09-09T14:02:24;20.50;94.00
33207;DHT22;19565;46.602;11.534;2022-09-09T14:04:52;20.60;93.60
33207;DHT22;19565;46.602;11.534;2022-09-09T14:07:22;20.70;92.90
33207;DHT22;19565;46.602;11.534;2022-09-09T14:09:50;20.80;93.00
33207;DHT22;19565;46.602;11.534;2022-09-09T14:12:19;20.80;92.50
33207;DHT22;19565;46.602;11.534;2022-09-09T14:14:47;20.90;92.50
33207;DHT22;19565;46.602;11.534;2022-09-09T14:17:15;21.00;92.60
33207;DHT22;19565;46.602;11.534;2022-09-09T14:19:45;21.00;92.30
33207;DHT22;19565;46.602;11.534;2022-09-09T14:22:13;21.00;92.60
33207;DHT22;19565;46.602;11.534;2022-09-09T14:24:41;21.10;92.30
33207;DHT22;19565;46.602;11.534;2022-09-09T14:27:09;21.20;91.80
33207;DHT22;19565;46.602;11.534;2022-09-09T14:29:37;21.20;91.90
33207;DHT22;19565;46.602;11.534;2022-09-09T14:32:05;21.30;91.50
33207;DHT22;19565;46.602;11.534;2022-09-09T14:34:38;21.30;91.20
33207;DHT22;19565;46.602;11.534;2022-09-09T14:37:08;21.40;91.60
33207;DHT22;19565;46.602;11.534;2022-09-09T14:39:36;21.50;90.60
33207;DHT22;19565;46.602;11.534;2022-09-09T14:42:05;21.50;90.30
33207;DHT22;19565;46.602;11.534;2022-09-09T14:44:33;21.50;90.30
33207;DHT22;19565;46.602;11.534;2022-09-09T14:47:05;21.60;90.30
33207;DHT22;19565;46.602;11.534;2022-09-09T14:49:34;21.70;90.10
33207;DHT22;19565;46.602;11.534;2022-09-09T14:52:03;21.90;87.80
33207;DHT22;19565;46.602;11.534;2022-09-09T14:54:33;22.20;87.60
33207;DHT22;19565;46.602;11.534;2022-09-09T14:57:01;22.50;87.70
33207;DHT22;19565;46.602;11.534;2022-09-09T14:59:29;22.80;85.00
33207;DHT22;19565;46.602;11.534;2022-09-09T15:01:57;23.00;85.20
33207;DHT22;19565;46.602;11.534;2022-09-09T15:04:30;23.40;82.50
33207;DHT22;19565;46.602;11.534;2022-09-09T15:06:58;23.80;80.80
33207;DHT22;19565;46.602;11.534;2022-09-09T15:09:26;24.10;79.00
33207;DHT22;19565;46.602;11.534;2022-09-09T15:11:56;24.10;78.40
33207;DHT22;19565;46.602;11.534;2022-09-09T15:14:24;23.60;80.00
33207;DHT22;19565;46.602;11.534;2022-09-09T15:16:52;23.20;81.10
33207;DHT22;19565;46.602;11.534;2022-09-09T15:19:20;22.80;82.50
33207;DHT22;19565;46.602;11.534;2022-09-09T15:21:48;22.30;84.10
33207;DHT22;19565;46.602;11.534;2022-09-09T15:24:16;22.00;86.00
33207;DHT22;19565;46.602;11.534;2022-09-09T15:26:44;21.90;87.20
33207;DHT22;19565;46.602;11.534;2022-09-09T15:29:14;21.60;88.50
33207;DHT22;19565;46.602;11.534;2022-09-09T15:31:42;21.40;88.90
33207;DHT22;19565;46.602;11.534;2022-09-09T15:34:10;21.30;89.80
33207;DHT22;19565;46.602;11.534;2022-09-09T15:36:41;21.20;90.10
33207;DHT22;19565;46.602;11.534;2022-09-09T15:39:10;21.10;90.60
33207;DHT22;19565;46.602;11.534;2022-09-09T15:41:40;21.00;90.40
33207;DHT22;19565;46.602;11.534;2022-09-09T15:44:09;20.80;90.30
33207;DHT22;19565;46.602;11.534;2022-09-09T15:46:41;20.80;90.70
33207;DHT22;19565;46.602;11.534;2022-09-09T15:49:11;20.70;91.10
33207;DHT22;19565;46.602;11.534;2022-09-09T15:51:42;20.60;91.00
33207;DHT22;19565;46.602;11.534;2022-09-09T15:54:12;20.50;91.50
33207;DHT22;19565;46.602;11.534;2022-09-09T15:56:41;20.50;91.50
33207;DHT22;19565;46.602;11.534;2022-09-09T15:59:09;20.40;92.50